Weather History for Woodward, OK

Change the Weather History Date:

Thursday, March 7, 2013

  Actual Average (KGAG) Record (KGAG)
Temperature  
Mean Temperature 54 °F -  
Max Temperature 71 °F 60 °F 83 °F (1974)
Min Temperature 37 °F 29 °F 6 °F (1967)
Degree Days  
Heating Degree Days 11    
Growing Degree Days 4 (Base 50)    
Moisture  
Dew Point 26 °F    
Average Humidity 36    
Maximum Humidity 56    
Minimum Humidity 20    
Precipitation  
Precipitation 0.00 in - - ()
Sea Level Pressure  
Sea Level Pressure 30.01 in    
Wind  
Wind Speed 14 mph (South)    
Max Wind Speed 21 mph    
Max Gust Speed 26 mph    
Visibility 10 miles    
Events      
Averages and records for this station are not official NWS values.
T = Trace of Precipitation, MM = Missing Value Source: NWS Daily Summary

Daily Weather History Graph

Daily Weather History Graph

Search for Another Location

Airport:

Trip Planner

Search our weather history database for the weather conditions in past years. The results will help you decide how hot, cold, wet, or windy it might be!

Date:

Astronomy

Mar. 07, 2013 Rise Set
Actual Time 6:59 AM CST 6:38 PM CST
Civil Twilight 6:34 AM CST 7:04 PM CST
Nautical Twilight 6:04 AM CST 7:34 PM CST
Astronomical Twilight 5:34 AM CST 8:04 PM CST
Moon 3:55 AM CST (3/7) 2:33 PM CST (3/7)
Length of Visible Light 12h 30m
Length of Day
11h 38m
Waning Crescent, 20% of the Moon is Illuminated
Mar 7
Waning Crescent
Mar 11
New
Mar 19
First Quarter
Mar 27
Full
Apr 2
Last Quarter

Hourly Weather History & Observations

Time (CST) Temp. Windchill Dew Point Humidity Pressure Visibility Wind Dir Wind Speed Gust Speed Precip Events Conditions
12:15 AM 41.0 °F 33.5 °F 24.8 °F 53% 30.08 in 10.0 mi SSE 13.8 mph - N/A   Clear
12:35 AM 41.0 °F 33.1 °F 24.8 °F 53% 30.08 in 10.0 mi SE 15.0 mph - N/A   Clear
12:55 AM 41.0 °F 34.3 °F 24.8 °F 53% 30.07 in 10.0 mi SE 11.5 mph - N/A   Clear
1:15 AM 41.0 °F 33.9 °F 23.0 °F 49% 30.07 in 10.0 mi SSE 12.7 mph - N/A   Clear
1:35 AM 41.0 °F 33.9 °F 23.0 °F 49% 30.07 in 10.0 mi SSE 12.7 mph - N/A   Clear
1:55 AM 41.0 °F 33.5 °F 23.0 °F 49% 30.07 in 10.0 mi SSE 13.8 mph - N/A   Clear
2:15 AM 41.0 °F 34.3 °F 23.0 °F 49% 30.07 in 10.0 mi SSE 11.5 mph - N/A   Clear
2:35 AM 41.0 °F 33.9 °F 23.0 °F 49% 30.06 in 10.0 mi SSE 12.7 mph 17.3 mph N/A   Clear
2:55 AM 41.0 °F 33.9 °F 23.0 °F 49% 30.05 in 10.0 mi SSE 12.7 mph - N/A   Clear
3:15 AM 41.0 °F 34.3 °F 23.0 °F 49% 30.03 in 10.0 mi SSE 11.5 mph 18.4 mph N/A   Clear
3:35 AM 41.0 °F 33.9 °F 21.2 °F 45% 30.02 in 10.0 mi SSE 12.7 mph - N/A   Clear
3:55 AM 41.0 °F 34.3 °F 21.2 °F 45% 30.02 in 10.0 mi SSE 11.5 mph 16.1 mph N/A   Clear
4:15 AM 41.0 °F 33.9 °F 21.2 °F 45% 30.02 in 10.0 mi SSE 12.7 mph - N/A   Clear
4:35 AM 41.0 °F 33.5 °F 21.2 °F 45% 30.02 in 10.0 mi SSE 13.8 mph - N/A   Clear
4:55 AM 39.2 °F 31.2 °F 21.2 °F 49% 30.01 in 10.0 mi SSE 13.8 mph - N/A   Clear
5:15 AM 41.0 °F 33.5 °F 21.2 °F 45% 30.01 in 10.0 mi SSE 13.8 mph - N/A   Clear
5:35 AM 41.0 °F 32.2 °F 21.2 °F 45% 30.00 in 10.0 mi SSE 18.4 mph 21.9 mph N/A   Clear
5:55 AM 39.2 °F 30.8 °F 21.2 °F 49% 30.01 in 10.0 mi SSE 15.0 mph 21.9 mph N/A   Clear
6:15 AM 39.2 °F 31.6 °F 21.2 °F 49% 30.01 in 10.0 mi South 12.7 mph - N/A   Clear
6:35 AM 37.4 °F 29.8 °F 21.2 °F 52% 30.02 in 10.0 mi SSE 11.5 mph - N/A   Clear
6:55 AM 37.4 °F 31.4 °F 21.2 °F 52% 30.02 in 10.0 mi South 8.1 mph - N/A   Clear
7:15 AM 37.4 °F 32.1 °F 23.0 °F 56% 30.03 in 10.0 mi SSE 6.9 mph - N/A   Clear
7:35 AM 37.4 °F 32.8 °F 23.0 °F 56% 30.04 in 10.0 mi SSE 5.8 mph - N/A   Clear
7:55 AM 41.0 °F 34.7 °F 23.0 °F 49% 30.03 in 10.0 mi South 10.4 mph - N/A   Clear
8:15 AM 42.8 °F 37.0 °F 21.2 °F 42% 30.04 in 10.0 mi South 10.4 mph - N/A   Clear
8:35 AM 44.6 °F 38.4 °F 21.2 °F 39% 30.04 in 10.0 mi South 12.7 mph - N/A   Clear
8:55 AM 46.4 °F 41.1 °F 21.2 °F 37% 30.04 in 10.0 mi South 11.5 mph - N/A   Clear
9:15 AM 50.0 °F - 21.2 °F 32% 30.04 in 10.0 mi South 13.8 mph - N/A   Clear
9:35 AM 51.8 °F - 23.0 °F 33% 30.03 in 10.0 mi South 17.3 mph - N/A   Clear
9:55 AM 53.6 °F - 23.0 °F 30% 30.03 in 10.0 mi SSW 20.7 mph 26.5 mph N/A   Clear
10:15 AM 53.6 °F - 23.0 °F 30% 30.03 in 10.0 mi South 18.4 mph 23.0 mph N/A   Clear
10:35 AM 55.4 °F - 23.0 °F 29% 30.04 in 10.0 mi SSW 19.6 mph 23.0 mph N/A   Clear
10:55 AM 55.4 °F - 23.0 °F 29% 30.03 in 10.0 mi South 16.1 mph 21.9 mph N/A   Clear
11:15 AM 59.0 °F - 24.8 °F 27% 30.02 in 10.0 mi South 16.1 mph 24.2 mph N/A   Clear
11:35 AM 59.0 °F - 24.8 °F 27% 30.02 in 10.0 mi South 18.4 mph 24.2 mph N/A   Clear
11:55 AM 60.8 °F - 26.6 °F 27% 30.02 in 10.0 mi South 15.0 mph - N/A   Clear
12:15 PM 62.6 °F - 26.6 °F 26% 30.01 in 10.0 mi South 19.6 mph - N/A   Clear
12:35 PM 62.6 °F - 26.6 °F 26% 30.00 in 10.0 mi South 19.6 mph 25.3 mph N/A   Clear
12:55 PM 64.4 °F - 26.6 °F 24% 30.00 in 10.0 mi South 16.1 mph 23.0 mph N/A   Clear
1:15 PM 66.2 °F - 26.6 °F 23% 30.00 in 10.0 mi South 18.4 mph 23.0 mph N/A   Clear
1:35 PM 66.2 °F - 26.6 °F 23% 29.99 in 10.0 mi South 15.0 mph 23.0 mph N/A   Clear
1:55 PM 68.0 °F - 28.4 °F 23% 29.97 in 10.0 mi SSE 17.3 mph 21.9 mph N/A   Clear
2:15 PM 69.8 °F - 26.6 °F 20% 29.97 in 10.0 mi South 15.0 mph 19.6 mph N/A   Clear
2:35 PM 69.8 °F - 28.4 °F 21% 29.96 in 10.0 mi South 18.4 mph - N/A   Clear
2:55 PM 69.8 °F - 26.6 °F 20% 29.96 in 10.0 mi SSE 18.4 mph 24.2 mph N/A   Clear
3:15 PM 69.8 °F - 26.6 °F 20% 29.95 in 10.0 mi South 19.6 mph 25.3 mph N/A   Clear
3:35 PM 71.6 °F - 28.4 °F 20% 29.95 in 10.0 mi SSE 17.3 mph 24.2 mph N/A   Clear
3:55 PM 71.6 °F - 28.4 °F 20% 29.94 in 10.0 mi South 17.3 mph - N/A   Clear
4:15 PM 69.8 °F - 28.4 °F 21% 29.95 in 10.0 mi SSE 18.4 mph 21.9 mph N/A   Clear
4:35 PM 69.8 °F - 28.4 °F 21% 29.95 in 10.0 mi South 17.3 mph 23.0 mph N/A   Clear
4:55 PM 69.8 °F - 28.4 °F 21% 29.94 in 10.0 mi South 19.6 mph 25.3 mph N/A   Clear
5:15 PM 69.8 °F - 28.4 °F 21% 29.95 in 10.0 mi South 15.0 mph 26.5 mph N/A   Clear
5:35 PM 68.0 °F - 28.4 °F 23% 29.94 in 10.0 mi SSE 18.4 mph 26.5 mph N/A   Clear
5:55 PM 66.2 °F - 30.2 °F 26% 29.94 in 10.0 mi SSE 19.6 mph 25.3 mph N/A   Clear
7:35 PM 59.0 °F - 30.2 °F 34% 29.97 in 10.0 mi South 16.1 mph 21.9 mph N/A   Clear
7:55 PM 59.0 °F - 30.2 °F 34% 29.98 in 10.0 mi South 15.0 mph - N/A   Clear
8:15 PM 59.0 °F - 30.2 °F 34% 29.98 in 10.0 mi South 12.7 mph 18.4 mph N/A   Clear
8:35 PM 59.0 °F - 30.2 °F 34% 29.98 in 10.0 mi South 15.0 mph - N/A   Clear
8:55 PM 59.0 °F - 30.2 °F 34% 29.98 in 10.0 mi South 16.1 mph 23.0 mph N/A   Clear
9:15 PM 59.0 °F - 30.2 °F 34% 29.99 in 10.0 mi South 16.1 mph 20.7 mph N/A   Clear
9:35 PM 59.0 °F - 28.4 °F 31% 29.99 in 10.0 mi South 15.0 mph - N/A   Clear
9:55 PM 59.0 °F - 28.4 °F 31% 29.99 in 10.0 mi South 13.8 mph 21.9 mph N/A   Clear
10:15 PM 59.0 °F - 28.4 °F 31% 29.99 in 10.0 mi South 17.3 mph 26.5 mph N/A   Clear
10:35 PM 59.0 °F - 30.2 °F 34% 30.00 in 10.0 mi South 16.1 mph 26.5 mph N/A   Clear
10:55 PM 55.4 °F - 30.2 °F 38% 30.00 in 10.0 mi South 12.7 mph 17.3 mph N/A   Clear
11:15 PM 55.4 °F - 32.0 °F 41% 30.01 in 10.0 mi SSW 13.8 mph 18.4 mph N/A   Clear
11:35 PM 55.4 °F - 32.0 °F 41% 30.00 in 10.0 mi South 16.1 mph 19.6 mph N/A   Clear
11:55 PM 55.4 °F - 32.0 °F 41% 29.99 in 10.0 mi South 16.1 mph 21.9 mph N/A   Clear